sensor_id;sensor_type;location;lat;lon;timestamp;P1;durP1;ratioP1;P2;durP2;ratioP2
20073;SDS011;10197;54.282;10.078;2022-10-31T00:00:04;12.20;;;9.13;;
20073;SDS011;10197;54.282;10.078;2022-10-31T00:02:38;12.85;;;9.77;;
20073;SDS011;10197;54.282;10.078;2022-10-31T00:05:05;11.85;;;9.10;;
20073;SDS011;10197;54.282;10.078;2022-10-31T00:07:34;14.70;;;10.13;;
20073;SDS011;10197;54.282;10.078;2022-10-31T00:10:01;15.40;;;11.10;;
20073;SDS011;10197;54.282;10.078;2022-10-31T00:12:28;14.50;;;10.55;;
20073;SDS011;10197;54.282;10.078;2022-10-31T00:14:56;16.33;;;11.73;;
20073;SDS011;10197;54.282;10.078;2022-10-31T00:17:22;16.15;;;11.88;;
20073;SDS011;10197;54.282;10.078;2022-10-31T00:19:49;15.43;;;10.30;;
20073;SDS011;10197;54.282;10.078;2022-10-31T00:22:16;11.73;;;10.02;;
20073;SDS011;10197;54.282;10.078;2022-10-31T00:24:44;14.00;;;10.65;;
20073;SDS011;10197;54.282;10.078;2022-10-31T00:27:11;13.77;;;10.73;;
20073;SDS011;10197;54.282;10.078;2022-10-31T00:29:38;14.82;;;10.95;;
20073;SDS011;10197;54.282;10.078;2022-10-31T00:32:05;14.27;;;11.88;;
20073;SDS011;10197;54.282;10.078;2022-10-31T00:34:31;14.35;;;11.07;;
20073;SDS011;10197;54.282;10.078;2022-10-31T00:36:59;15.45;;;11.95;;
20073;SDS011;10197;54.282;10.078;2022-10-31T00:39:26;14.02;;;11.38;;
20073;SDS011;10197;54.282;10.078;2022-10-31T00:41:54;17.70;;;11.93;;
20073;SDS011;10197;54.282;10.078;2022-10-31T00:44:21;16.48;;;12.52;;
20073;SDS011;10197;54.282;10.078;2022-10-31T00:46:48;14.52;;;11.45;;
20073;SDS011;10197;54.282;10.078;2022-10-31T00:49:20;15.50;;;11.18;;
20073;SDS011;10197;54.282;10.078;2022-10-31T00:51:47;14.20;;;11.32;;
20073;SDS011;10197;54.282;10.078;2022-10-31T00:54:13;12.73;;;10.68;;
20073;SDS011;10197;54.282;10.078;2022-10-31T00:56:40;14.80;;;10.55;;
20073;SDS011;10197;54.282;10.078;2022-10-31T00:59:08;14.45;;;11.32;;
20073;SDS011;10197;54.282;10.078;2022-10-31T01:01:35;17.88;;;11.77;;
20073;SDS011;10197;54.282;10.078;2022-10-31T01:04:02;18.90;;;11.57;;
20073;SDS011;10197;54.282;10.078;2022-10-31T01:06:31;16.52;;;13.13;;
20073;SDS011;10197;54.282;10.078;2022-10-31T01:08:58;17.08;;;12.43;;
20073;SDS011;10197;54.282;10.078;2022-10-31T01:11:25;16.52;;;12.27;;
20073;SDS011;10197;54.282;10.078;2022-10-31T01:13:53;15.98;;;12.50;;
20073;SDS011;10197;54.282;10.078;2022-10-31T01:16:22;14.50;;;12.48;;
20073;SDS011;10197;54.282;10.078;2022-10-31T01:18:50;18.58;;;13.35;;
20073;SDS011;10197;54.282;10.078;2022-10-31T01:21:19;19.40;;;12.82;;
20073;SDS011;10197;54.282;10.078;2022-10-31T01:23:47;16.17;;;12.40;;
20073;SDS011;10197;54.282;10.078;2022-10-31T01:26:15;18.23;;;12.40;;
20073;SDS011;10197;54.282;10.078;2022-10-31T01:28:44;16.73;;;13.02;;
20073;SDS011;10197;54.282;10.078;2022-10-31T01:31:13;15.13;;;11.85;;
20073;SDS011;10197;54.282;10.078;2022-10-31T01:33:42;18.25;;;13.55;;
20073;SDS011;10197;54.282;10.078;2022-10-31T01:36:14;20.08;;;14.30;;
20073;SDS011;10197;54.282;10.078;2022-10-31T01:38:43;20.70;;;16.60;;
20073;SDS011;10197;54.282;10.078;2022-10-31T01:41:10;24.30;;;17.13;;
20073;SDS011;10197;54.282;10.078;2022-10-31T01:43:44;22.65;;;16.33;;
20073;SDS011;10197;54.282;10.078;2022-10-31T01:46:13;27.98;;;19.58;;
20073;SDS011;10197;54.282;10.078;2022-10-31T01:48:43;32.17;;;20.25;;
20073;SDS011;10197;54.282;10.078;2022-10-31T01:51:10;26.73;;;18.70;;
20073;SDS011;10197;54.282;10.078;2022-10-31T01:53:39;31.73;;;22.33;;
20073;SDS011;10197;54.282;10.078;2022-10-31T01:56:06;38.65;;;24.10;;
20073;SDS011;10197;54.282;10.078;2022-10-31T01:58:36;36.90;;;21.88;;
20073;SDS011;10197;54.282;10.078;2022-10-31T02:01:03;39.13;;;24.48;;
20073;SDS011;10197;54.282;10.078;2022-10-31T02:03:31;33.03;;;20.67;;
20073;SDS011;10197;54.282;10.078;2022-10-31T02:05:59;45.90;;;27.40;;
20073;SDS011;10197;54.282;10.078;2022-10-31T02:08:27;39.28;;;25.60;;
20073;SDS011;10197;54.282;10.078;2022-10-31T02:10:55;37.80;;;24.38;;
20073;SDS011;10197;54.282;10.078;2022-10-31T02:13:23;39.28;;;24.63;;
20073;SDS011;10197;54.282;10.078;2022-10-31T02:15:51;45.33;;;26.10;;
20073;SDS011;10197;54.282;10.078;2022-10-31T02:18:20;41.83;;;27.25;;
20073;SDS011;10197;54.282;10.078;2022-10-31T02:20:50;48.53;;;30.15;;
20073;SDS011;10197;54.282;10.078;2022-10-31T02:23:42;49.53;;;30.40;;
20073;SDS011;10197;54.282;10.078;2022-10-31T02:26:27;49.47;;;28.70;;
20073;SDS011;10197;54.282;10.078;2022-10-31T02:29:07;40.42;;;26.98;;
20073;SDS011;10197;54.282;10.078;2022-10-31T02:31:45;44.13;;;26.80;;
20073;SDS011;10197;54.282;10.078;2022-10-31T02:34:16;44.28;;;26.77;;
20073;SDS011;10197;54.282;10.078;2022-10-31T02:36:48;47.03;;;29.05;;
20073;SDS011;10197;54.282;10.078;2022-10-31T02:39:22;54.53;;;33.22;;
20073;SDS011;10197;54.282;10.078;2022-10-31T02:41:52;57.53;;;32.28;;
20073;SDS011;10197;54.282;10.078;2022-10-31T02:44:34;60.85;;;32.20;;
20073;SDS011;10197;54.282;10.078;2022-10-31T02:47:05;57.55;;;34.70;;
20073;SDS011;10197;54.282;10.078;2022-10-31T02:49:34;58.60;;;33.53;;
20073;SDS011;10197;54.282;10.078;2022-10-31T02:52:13;64.03;;;36.13;;
20073;SDS011;10197;54.282;10.078;2022-10-31T02:54:40;77.47;;;39.47;;
20073;SDS011;10197;54.282;10.078;2022-10-31T02:57:07;85.85;;;44.60;;
20073;SDS011;10197;54.282;10.078;2022-10-31T02:59:35;93.15;;;44.63;;
20073;SDS011;10197;54.282;10.078;2022-10-31T03:02:21;90.82;;;44.05;;
20073;SDS011;10197;54.282;10.078;2022-10-31T03:04:59;83.95;;;41.05;;
20073;SDS011;10197;54.282;10.078;2022-10-31T03:07:36;81.28;;;39.92;;
20073;SDS011;10197;54.282;10.078;2022-10-31T03:10:09;78.25;;;39.53;;
20073;SDS011;10197;54.282;10.078;2022-10-31T03:12:45;68.88;;;37.75;;
20073;SDS011;10197;54.282;10.078;2022-10-31T03:15:17;71.32;;;39.35;;
20073;SDS011;10197;54.282;10.078;2022-10-31T03:17:52;83.55;;;45.97;;
20073;SDS011;10197;54.282;10.078;2022-10-31T03:20:24;79.40;;;38.38;;
20073;SDS011;10197;54.282;10.078;2022-10-31T03:22:55;77.35;;;40.90;;
20073;SDS011;10197;54.282;10.078;2022-10-31T03:25:23;69.20;;;38.78;;
20073;SDS011;10197;54.282;10.078;2022-10-31T03:27:54;82.13;;;41.70;;
20073;SDS011;10197;54.282;10.078;2022-10-31T03:30:23;66.10;;;37.40;;
20073;SDS011;10197;54.282;10.078;2022-10-31T03:32:56;70.35;;;38.03;;
20073;SDS011;10197;54.282;10.078;2022-10-31T03:35:24;77.32;;;40.53;;
20073;SDS011;10197;54.282;10.078;2022-10-31T03:37:53;64.40;;;36.92;;
20073;SDS011;10197;54.282;10.078;2022-10-31T03:40:21;68.82;;;37.90;;
20073;SDS011;10197;54.282;10.078;2022-10-31T03:42:50;67.97;;;36.53;;
20073;SDS011;10197;54.282;10.078;2022-10-31T03:45:21;72.60;;;40.70;;
20073;SDS011;10197;54.282;10.078;2022-10-31T03:47:50;67.50;;;39.78;;
20073;SDS011;10197;54.282;10.078;2022-10-31T03:50:19;86.35;;;45.03;;
20073;SDS011;10197;54.282;10.078;2022-10-31T03:52:47;72.30;;;39.47;;
20073;SDS011;10197;54.282;10.078;2022-10-31T03:55:18;75.25;;;38.58;;
20073;SDS011;10197;54.282;10.078;2022-10-31T03:57:48;88.50;;;44.38;;
20073;SDS011;10197;54.282;10.078;2022-10-31T04:00:19;90.88;;;45.38;;
20073;SDS011;10197;54.282;10.078;2022-10-31T04:02:47;98.07;;;47.90;;
20073;SDS011;10197;54.282;10.078;2022-10-31T04:05:17;74.55;;;41.53;;
20073;SDS011;10197;54.282;10.078;2022-10-31T04:07:46;91.72;;;43.10;;
20073;SDS011;10197;54.282;10.078;2022-10-31T04:10:16;94.40;;;45.67;;
20073;SDS011;10197;54.282;10.078;2022-10-31T04:12:43;99.40;;;47.72;;
20073;SDS011;10197;54.282;10.078;2022-10-31T04:15:18;83.00;;;43.28;;
20073;SDS011;10197;54.282;10.078;2022-10-31T04:17:46;107.32;;;50.90;;
20073;SDS011;10197;54.282;10.078;2022-10-31T04:20:16;93.00;;;46.42;;
20073;SDS011;10197;54.282;10.078;2022-10-31T04:22:44;89.10;;;46.40;;
20073;SDS011;10197;54.282;10.078;2022-10-31T04:25:12;93.70;;;46.53;;
20073;SDS011;10197;54.282;10.078;2022-10-31T04:27:39;106.70;;;47.35;;
20073;SDS011;10197;54.282;10.078;2022-10-31T04:30:09;96.70;;;43.50;;
20073;SDS011;10197;54.282;10.078;2022-10-31T04:32:39;90.30;;;45.80;;
20073;SDS011;10197;54.282;10.078;2022-10-31T04:35:06;82.05;;;40.90;;
20073;SDS011;10197;54.282;10.078;2022-10-31T04:37:34;78.93;;;40.85;;
20073;SDS011;10197;54.282;10.078;2022-10-31T04:40:04;85.45;;;40.08;;
20073;SDS011;10197;54.282;10.078;2022-10-31T04:42:49;80.00;;;40.40;;
20073;SDS011;10197;54.282;10.078;2022-10-31T04:45:16;69.45;;;36.55;;
20073;SDS011;10197;54.282;10.078;2022-10-31T04:47:43;87.57;;;43.97;;
20073;SDS011;10197;54.282;10.078;2022-10-31T04:50:10;78.93;;;38.83;;
20073;SDS011;10197;54.282;10.078;2022-10-31T04:52:38;75.70;;;39.42;;
20073;SDS011;10197;54.282;10.078;2022-10-31T04:55:07;84.47;;;41.60;;
20073;SDS011;10197;54.282;10.078;2022-10-31T04:57:53;71.30;;;38.38;;
20073;SDS011;10197;54.282;10.078;2022-10-31T05:00:23;77.47;;;39.65;;
20073;SDS011;10197;54.282;10.078;2022-10-31T05:02:51;74.03;;;38.25;;
20073;SDS011;10197;54.282;10.078;2022-10-31T05:05:19;63.10;;;34.08;;
20073;SDS011;10197;54.282;10.078;2022-10-31T05:07:47;60.47;;;34.13;;
20073;SDS011;10197;54.282;10.078;2022-10-31T05:10:19;65.07;;;35.13;;
20073;SDS011;10197;54.282;10.078;2022-10-31T05:12:49;67.78;;;35.50;;
20073;SDS011;10197;54.282;10.078;2022-10-31T05:15:39;68.13;;;34.78;;
20073;SDS011;10197;54.282;10.078;2022-10-31T05:18:24;74.25;;;35.65;;
20073;SDS011;10197;54.282;10.078;2022-10-31T05:20:57;67.20;;;34.40;;
20073;SDS011;10197;54.282;10.078;2022-10-31T05:23:34;58.88;;;32.78;;
20073;SDS011;10197;54.282;10.078;2022-10-31T05:26:05;70.82;;;36.25;;
20073;SDS011;10197;54.282;10.078;2022-10-31T05:28:32;74.70;;;38.22;;
20073;SDS011;10197;54.282;10.078;2022-10-31T05:31:01;71.97;;;36.75;;
20073;SDS011;10197;54.282;10.078;2022-10-31T05:33:27;73.55;;;35.67;;
20073;SDS011;10197;54.282;10.078;2022-10-31T05:36:03;62.95;;;31.67;;
20073;SDS011;10197;54.282;10.078;2022-10-31T05:38:37;60.70;;;30.95;;
20073;SDS011;10197;54.282;10.078;2022-10-31T05:41:12;63.15;;;31.40;;
20073;SDS011;10197;54.282;10.078;2022-10-31T05:43:43;66.88;;;32.28;;
20073;SDS011;10197;54.282;10.078;2022-10-31T05:46:10;62.25;;;32.88;;
20073;SDS011;10197;54.282;10.078;2022-10-31T05:49:00;57.55;;;31.90;;
20073;SDS011;10197;54.282;10.078;2022-10-31T05:51:45;61.20;;;32.25;;
20073;SDS011;10197;54.282;10.078;2022-10-31T05:54:12;56.95;;;32.85;;
20073;SDS011;10197;54.282;10.078;2022-10-31T05:56:41;61.28;;;32.45;;
20073;SDS011;10197;54.282;10.078;2022-10-31T05:59:08;58.50;;;32.30;;
20073;SDS011;10197;54.282;10.078;2022-10-31T06:01:35;59.53;;;31.80;;
20073;SDS011;10197;54.282;10.078;2022-10-31T06:04:06;49.00;;;29.25;;
20073;SDS011;10197;54.282;10.078;2022-10-31T06:06:35;57.58;;;31.15;;
20073;SDS011;10197;54.282;10.078;2022-10-31T06:09:02;58.03;;;31.35;;
20073;SDS011;10197;54.282;10.078;2022-10-31T06:11:33;60.85;;;32.20;;
20073;SDS011;10197;54.282;10.078;2022-10-31T06:14:04;50.08;;;28.42;;
20073;SDS011;10197;54.282;10.078;2022-10-31T06:16:46;45.10;;;26.88;;
20073;SDS011;10197;54.282;10.078;2022-10-31T06:19:31;49.92;;;27.13;;
20073;SDS011;10197;54.282;10.078;2022-10-31T06:21:58;50.83;;;28.95;;
20073;SDS011;10197;54.282;10.078;2022-10-31T06:24:25;55.65;;;31.92;;
20073;SDS011;10197;54.282;10.078;2022-10-31T06:26:52;48.72;;;27.05;;
20073;SDS011;10197;54.282;10.078;2022-10-31T06:29:21;51.30;;;28.77;;
20073;SDS011;10197;54.282;10.078;2022-10-31T06:32:05;49.67;;;27.33;;
20073;SDS011;10197;54.282;10.078;2022-10-31T06:34:38;49.22;;;26.20;;
20073;SDS011;10197;54.282;10.078;2022-10-31T06:37:06;43.63;;;25.48;;
20073;SDS011;10197;54.282;10.078;2022-10-31T06:39:34;42.70;;;25.17;;
20073;SDS011;10197;54.282;10.078;2022-10-31T06:42:04;44.25;;;24.90;;
20073;SDS011;10197;54.282;10.078;2022-10-31T06:44:34;44.25;;;25.55;;
20073;SDS011;10197;54.282;10.078;2022-10-31T06:47:19;44.20;;;25.42;;
20073;SDS011;10197;54.282;10.078;2022-10-31T06:49:57;42.80;;;23.85;;
20073;SDS011;10197;54.282;10.078;2022-10-31T06:52:25;39.38;;;23.13;;
20073;SDS011;10197;54.282;10.078;2022-10-31T06:54:51;41.15;;;24.48;;
20073;SDS011;10197;54.282;10.078;2022-10-31T06:57:20;41.08;;;25.05;;
20073;SDS011;10197;54.282;10.078;2022-10-31T06:59:48;37.92;;;22.67;;
20073;SDS011;10197;54.282;10.078;2022-10-31T07:02:24;38.60;;;23.15;;
20073;SDS011;10197;54.282;10.078;2022-10-31T07:04:51;42.38;;;23.00;;
20073;SDS011;10197;54.282;10.078;2022-10-31T07:07:17;30.75;;;20.50;;
20073;SDS011;10197;54.282;10.078;2022-10-31T07:09:46;87.93;;;24.65;;
20073;SDS011;10197;54.282;10.078;2022-10-31T07:12:16;112.22;;;28.33;;
20073;SDS011;10197;54.282;10.078;2022-10-31T07:14:53;87.68;;;24.08;;
20073;SDS011;10197;54.282;10.078;2022-10-31T07:17:22;69.63;;;19.90;;
20073;SDS011;10197;54.282;10.078;2022-10-31T07:19:52;111.78;;;24.10;;
20073;SDS011;10197;54.282;10.078;2022-10-31T07:22:20;111.63;;;23.08;;
20073;SDS011;10197;54.282;10.078;2022-10-31T07:24:47;41.40;;;16.42;;
20073;SDS011;10197;54.282;10.078;2022-10-31T07:27:35;51.85;;;15.40;;
20073;SDS011;10197;54.282;10.078;2022-10-31T07:30:05;97.82;;;18.52;;
20073;SDS011;10197;54.282;10.078;2022-10-31T07:32:37;92.43;;;16.17;;
20073;SDS011;10197;54.282;10.078;2022-10-31T07:35:05;62.63;;;17.67;;
20073;SDS011;10197;54.282;10.078;2022-10-31T07:37:44;62.13;;;16.85;;
20073;SDS011;10197;54.282;10.078;2022-10-31T07:40:12;48.05;;;16.48;;
20073;SDS011;10197;54.282;10.078;2022-10-31T07:42:39;36.50;;;15.00;;
20073;SDS011;10197;54.282;10.078;2022-10-31T07:45:28;54.85;;;17.23;;
20073;SDS011;10197;54.282;10.078;2022-10-31T07:48:13;118.72;;;19.58;;
20073;SDS011;10197;54.282;10.078;2022-10-31T07:50:58;50.90;;;19.08;;
20073;SDS011;10197;54.282;10.078;2022-10-31T07:53:43;82.20;;;20.63;;
20073;SDS011;10197;54.282;10.078;2022-10-31T07:56:21;59.83;;;19.67;;
20073;SDS011;10197;54.282;10.078;2022-10-31T07:58:48;50.42;;;17.42;;
20073;SDS011;10197;54.282;10.078;2022-10-31T08:01:16;89.20;;;20.50;;
20073;SDS011;10197;54.282;10.078;2022-10-31T08:03:56;27.80;;;17.70;;
20073;SDS011;10197;54.282;10.078;2022-10-31T08:06:43;31.23;;;16.45;;
20073;SDS011;10197;54.282;10.078;2022-10-31T08:09:29;45.03;;;18.10;;
20073;SDS011;10197;54.282;10.078;2022-10-31T08:12:00;94.40;;;18.75;;
20073;SDS011;10197;54.282;10.078;2022-10-31T08:14:29;43.22;;;16.58;;
20073;SDS011;10197;54.282;10.078;2022-10-31T08:16:58;27.40;;;16.08;;
20073;SDS011;10197;54.282;10.078;2022-10-31T08:19:33;48.95;;;15.95;;
20073;SDS011;10197;54.282;10.078;2022-10-31T08:22:00;76.13;;;17.90;;
20073;SDS011;10197;54.282;10.078;2022-10-31T08:24:27;56.50;;;16.45;;
20073;SDS011;10197;54.282;10.078;2022-10-31T08:26:56;35.42;;;13.77;;
20073;SDS011;10197;54.282;10.078;2022-10-31T08:29:23;19.10;;;12.90;;
20073;SDS011;10197;54.282;10.078;2022-10-31T08:31:50;31.45;;;14.10;;
20073;SDS011;10197;54.282;10.078;2022-10-31T08:34:37;34.20;;;14.88;;
20073;SDS011;10197;54.282;10.078;2022-10-31T08:37:42;47.42;;;13.57;;
20073;SDS011;10197;54.282;10.078;2022-10-31T08:40:10;31.05;;;13.10;;
20073;SDS011;10197;54.282;10.078;2022-10-31T08:42:42;24.52;;;12.40;;
20073;SDS011;10197;54.282;10.078;2022-10-31T08:45:11;34.20;;;13.15;;
20073;SDS011;10197;54.282;10.078;2022-10-31T08:47:38;23.63;;;13.35;;
20073;SDS011;10197;54.282;10.078;2022-10-31T08:50:06;28.20;;;13.90;;
20073;SDS011;10197;54.282;10.078;2022-10-31T08:52:34;54.33;;;15.55;;
20073;SDS011;10197;54.282;10.078;2022-10-31T08:55:03;33.58;;;14.05;;
20073;SDS011;10197;54.282;10.078;2022-10-31T08:57:53;50.83;;;15.38;;
20073;SDS011;10197;54.282;10.078;2022-10-31T09:00:22;37.25;;;14.35;;
20073;SDS011;10197;54.282;10.078;2022-10-31T09:03:03;50.03;;;17.60;;
20073;SDS011;10197;54.282;10.078;2022-10-31T09:05:33;39.45;;;15.25;;
20073;SDS011;10197;54.282;10.078;2022-10-31T09:08:02;25.73;;;14.63;;
20073;SDS011;10197;54.282;10.078;2022-10-31T09:10:31;29.58;;;13.15;;
20073;SDS011;10197;54.282;10.078;2022-10-31T09:13:05;22.75;;;11.63;;
20073;SDS011;10197;54.282;10.078;2022-10-31T09:15:33;32.78;;;12.60;;
20073;SDS011;10197;54.282;10.078;2022-10-31T09:18:17;22.02;;;12.60;;
20073;SDS011;10197;54.282;10.078;2022-10-31T09:20:56;37.58;;;12.13;;
20073;SDS011;10197;54.282;10.078;2022-10-31T09:23:26;33.40;;;12.57;;
20073;SDS011;10197;54.282;10.078;2022-10-31T09:25:53;25.63;;;12.73;;
20073;SDS011;10197;54.282;10.078;2022-10-31T09:28:33;32.13;;;13.18;;
20073;SDS011;10197;54.282;10.078;2022-10-31T09:31:12;22.52;;;11.20;;
20073;SDS011;10197;54.282;10.078;2022-10-31T09:34:02;34.85;;;13.10;;
20073;SDS011;10197;54.282;10.078;2022-10-31T09:36:37;40.47;;;14.63;;
20073;SDS011;10197;54.282;10.078;2022-10-31T09:39:12;24.92;;;14.13;;
20073;SDS011;10197;54.282;10.078;2022-10-31T09:41:47;21.67;;;12.75;;
20073;SDS011;10197;54.282;10.078;2022-10-31T09:44:23;40.85;;;16.05;;
20073;SDS011;10197;54.282;10.078;2022-10-31T09:46:55;23.70;;;13.52;;
20073;SDS011;10197;54.282;10.078;2022-10-31T09:49:34;54.65;;;17.05;;
20073;SDS011;10197;54.282;10.078;2022-10-31T09:52:11;48.17;;;17.45;;
20073;SDS011;10197;54.282;10.078;2022-10-31T09:54:44;35.88;;;18.38;;
20073;SDS011;10197;54.282;10.078;2022-10-31T09:57:14;31.50;;;15.93;;
20073;SDS011;10197;54.282;10.078;2022-10-31T09:59:49;35.50;;;17.10;;
20073;SDS011;10197;54.282;10.078;2022-10-31T10:02:20;39.03;;;17.90;;
20073;SDS011;10197;54.282;10.078;2022-10-31T10:04:51;31.77;;;17.00;;
20073;SDS011;10197;54.282;10.078;2022-10-31T10:07:25;32.05;;;16.42;;
20073;SDS011;10197;54.282;10.078;2022-10-31T10:10:17;31.80;;;16.48;;
20073;SDS011;10197;54.282;10.078;2022-10-31T10:13:04;30.75;;;15.98;;
20073;SDS011;10197;54.282;10.078;2022-10-31T10:15:47;31.20;;;16.55;;
20073;SDS011;10197;54.282;10.078;2022-10-31T10:18:23;30.63;;;15.52;;
20073;SDS011;10197;54.282;10.078;2022-10-31T10:21:02;31.65;;;16.17;;
20073;SDS011;10197;54.282;10.078;2022-10-31T10:23:41;28.15;;;14.73;;
20073;SDS011;10197;54.282;10.078;2022-10-31T10:26:15;31.58;;;16.25;;
20073;SDS011;10197;54.282;10.078;2022-10-31T10:28:45;25.58;;;14.73;;
20073;SDS011;10197;54.282;10.078;2022-10-31T10:31:14;20.23;;;12.55;;
20073;SDS011;10197;54.282;10.078;2022-10-31T10:33:43;24.13;;;14.32;;
20073;SDS011;10197;54.282;10.078;2022-10-31T10:36:21;21.48;;;12.77;;
20073;SDS011;10197;54.282;10.078;2022-10-31T10:38:55;22.02;;;13.52;;
20073;SDS011;10197;54.282;10.078;2022-10-31T10:41:27;20.83;;;13.32;;
20073;SDS011;10197;54.282;10.078;2022-10-31T10:44:00;21.35;;;13.07;;
20073;SDS011;10197;54.282;10.078;2022-10-31T10:46:31;22.88;;;12.73;;
20073;SDS011;10197;54.282;10.078;2022-10-31T10:49:18;26.83;;;15.20;;
20073;SDS011;10197;54.282;10.078;2022-10-31T10:51:46;23.63;;;14.32;;
20073;SDS011;10197;54.282;10.078;2022-10-31T10:54:24;23.83;;;13.93;;
20073;SDS011;10197;54.282;10.078;2022-10-31T10:57:01;23.45;;;12.68;;
20073;SDS011;10197;54.282;10.078;2022-10-31T10:59:32;20.40;;;12.38;;
20073;SDS011;10197;54.282;10.078;2022-10-31T11:02:00;17.80;;;11.73;;
20073;SDS011;10197;54.282;10.078;2022-10-31T11:04:29;18.05;;;12.70;;
20073;SDS011;10197;54.282;10.078;2022-10-31T11:06:57;18.63;;;12.57;;
20073;SDS011;10197;54.282;10.078;2022-10-31T11:09:26;14.20;;;10.98;;
20073;SDS011;10197;54.282;10.078;2022-10-31T11:11:53;17.23;;;11.32;;
20073;SDS011;10197;54.282;10.078;2022-10-31T11:14:21;17.65;;;11.70;;
20073;SDS011;10197;54.282;10.078;2022-10-31T11:16:49;17.35;;;10.98;;
20073;SDS011;10197;54.282;10.078;2022-10-31T11:19:18;16.83;;;11.35;;
20073;SDS011;10197;54.282;10.078;2022-10-31T11:21:47;17.25;;;12.10;;
20073;SDS011;10197;54.282;10.078;2022-10-31T11:24:15;16.67;;;11.07;;
20073;SDS011;10197;54.282;10.078;2022-10-31T11:27:02;19.52;;;12.13;;
20073;SDS011;10197;54.282;10.078;2022-10-31T11:29:31;15.05;;;10.77;;
20073;SDS011;10197;54.282;10.078;2022-10-31T11:31:58;19.45;;;11.20;;
20073;SDS011;10197;54.282;10.078;2022-10-31T11:34:28;16.60;;;11.43;;
20073;SDS011;10197;54.282;10.078;2022-10-31T11:36:58;15.55;;;10.45;;
20073;SDS011;10197;54.282;10.078;2022-10-31T11:39:29;14.07;;;10.05;;
20073;SDS011;10197;54.282;10.078;2022-10-31T11:41:59;11.95;;;8.93;;
20073;SDS011;10197;54.282;10.078;2022-10-31T11:44:28;13.68;;;8.52;;
20073;SDS011;10197;54.282;10.078;2022-10-31T11:46:58;10.80;;;7.93;;
20073;SDS011;10197;54.282;10.078;2022-10-31T11:49:28;14.25;;;9.13;;
20073;SDS011;10197;54.282;10.078;2022-10-31T11:51:57;14.52;;;9.07;;
20073;SDS011;10197;54.282;10.078;2022-10-31T11:54:26;14.05;;;9.38;;
20073;SDS011;10197;54.282;10.078;2022-10-31T11:56:54;17.95;;;11.10;;
20073;SDS011;10197;54.282;10.078;2022-10-31T11:59:24;17.00;;;9.48;;
20073;SDS011;10197;54.282;10.078;2022-10-31T12:01:53;16.90;;;8.32;;
20073;SDS011;10197;54.282;10.078;2022-10-31T12:04:24;14.95;;;8.63;;
20073;SDS011;10197;54.282;10.078;2022-10-31T12:06:56;12.90;;;8.55;;
20073;SDS011;10197;54.282;10.078;2022-10-31T12:09:24;14.68;;;8.00;;
20073;SDS011;10197;54.282;10.078;2022-10-31T12:11:57;12.10;;;8.00;;
20073;SDS011;10197;54.282;10.078;2022-10-31T12:14:40;16.33;;;10.13;;
20073;SDS011;10197;54.282;10.078;2022-10-31T12:17:13;13.82;;;8.68;;
20073;SDS011;10197;54.282;10.078;2022-10-31T12:19:42;13.00;;;8.63;;
20073;SDS011;10197;54.282;10.078;2022-10-31T12:22:17;13.85;;;6.93;;
20073;SDS011;10197;54.282;10.078;2022-10-31T12:24:59;14.38;;;7.70;;
20073;SDS011;10197;54.282;10.078;2022-10-31T12:27:50;15.32;;;9.48;;
20073;SDS011;10197;54.282;10.078;2022-10-31T12:30:26;15.48;;;8.45;;
20073;SDS011;10197;54.282;10.078;2022-10-31T12:35:58;11.90;;;6.53;;
20073;SDS011;10197;54.282;10.078;2022-10-31T12:38:38;15.15;;;8.23;;
20073;SDS011;10197;54.282;10.078;2022-10-31T12:41:17;16.98;;;8.30;;
20073;SDS011;10197;54.282;10.078;2022-10-31T12:43:53;9.02;;;6.10;;
20073;SDS011;10197;54.282;10.078;2022-10-31T12:46:29;11.77;;;7.22;;
20073;SDS011;10197;54.282;10.078;2022-10-31T12:49:09;17.67;;;8.10;;
20073;SDS011;10197;54.282;10.078;2022-10-31T12:51:45;11.15;;;6.70;;
20073;SDS011;10197;54.282;10.078;2022-10-31T12:54:24;12.60;;;5.93;;
20073;SDS011;10197;54.282;10.078;2022-10-31T12:57:01;12.90;;;6.60;;
20073;SDS011;10197;54.282;10.078;2022-10-31T12:59:34;18.48;;;6.80;;
20073;SDS011;10197;54.282;10.078;2022-10-31T13:02:04;13.32;;;6.15;;
20073;SDS011;10197;54.282;10.078;2022-10-31T13:04:40;12.23;;;6.82;;
20073;SDS011;10197;54.282;10.078;2022-10-31T13:07:10;11.10;;;6.00;;
20073;SDS011;10197;54.282;10.078;2022-10-31T13:09:40;11.77;;;6.53;;
20073;SDS011;10197;54.282;10.078;2022-10-31T13:12:12;9.98;;;4.93;;
20073;SDS011;10197;54.282;10.078;2022-10-31T13:14:42;11.25;;;5.38;;
20073;SDS011;10197;54.282;10.078;2022-10-31T13:17:13;8.55;;;4.80;;
20073;SDS011;10197;54.282;10.078;2022-10-31T13:19:47;7.82;;;4.80;;
20073;SDS011;10197;54.282;10.078;2022-10-31T13:22:15;9.38;;;4.95;;
20073;SDS011;10197;54.282;10.078;2022-10-31T13:24:44;8.82;;;4.93;;
20073;SDS011;10197;54.282;10.078;2022-10-31T13:27:17;9.02;;;4.75;;
20073;SDS011;10197;54.282;10.078;2022-10-31T13:29:50;9.80;;;4.95;;
20073;SDS011;10197;54.282;10.078;2022-10-31T13:32:25;15.73;;;6.10;;
20073;SDS011;10197;54.282;10.078;2022-10-31T13:34:53;9.43;;;5.85;;
20073;SDS011;10197;54.282;10.078;2022-10-31T13:37:23;9.02;;;5.10;;
20073;SDS011;10197;54.282;10.078;2022-10-31T13:40:02;7.35;;;5.13;;
20073;SDS011;10197;54.282;10.078;2022-10-31T13:42:38;9.88;;;5.30;;
20073;SDS011;10197;54.282;10.078;2022-10-31T13:45:12;8.45;;;4.63;;
20073;SDS011;10197;54.282;10.078;2022-10-31T13:47:41;9.43;;;5.57;;
20073;SDS011;10197;54.282;10.078;2022-10-31T13:50:19;11.75;;;5.75;;
20073;SDS011;10197;54.282;10.078;2022-10-31T13:52:48;9.07;;;4.90;;
20073;SDS011;10197;54.282;10.078;2022-10-31T13:58:03;9.23;;;4.75;;
20073;SDS011;10197;54.282;10.078;2022-10-31T14:00:30;9.90;;;5.20;;
20073;SDS011;10197;54.282;10.078;2022-10-31T14:03:01;10.80;;;4.90;;
20073;SDS011;10197;54.282;10.078;2022-10-31T14:05:29;8.02;;;4.28;;
20073;SDS011;10197;54.282;10.078;2022-10-31T14:07:57;10.50;;;5.45;;
20073;SDS011;10197;54.282;10.078;2022-10-31T14:10:26;6.97;;;4.93;;
20073;SDS011;10197;54.282;10.078;2022-10-31T14:12:53;12.52;;;6.80;;
20073;SDS011;10197;54.282;10.078;2022-10-31T14:15:29;13.00;;;7.40;;
20073;SDS011;10197;54.282;10.078;2022-10-31T14:17:56;10.88;;;5.80;;
20073;SDS011;10197;54.282;10.078;2022-10-31T14:20:31;11.30;;;5.50;;
20073;SDS011;10197;54.282;10.078;2022-10-31T14:23:10;10.52;;;5.72;;
20073;SDS011;10197;54.282;10.078;2022-10-31T14:25:38;13.25;;;6.63;;
20073;SDS011;10197;54.282;10.078;2022-10-31T14:28:17;14.25;;;7.10;;
20073;SDS011;10197;54.282;10.078;2022-10-31T14:30:50;13.57;;;7.50;;
20073;SDS011;10197;54.282;10.078;2022-10-31T14:33:18;9.13;;;5.63;;
20073;SDS011;10197;54.282;10.078;2022-10-31T14:35:50;11.40;;;5.60;;
20073;SDS011;10197;54.282;10.078;2022-10-31T14:38:22;9.25;;;5.65;;
20073;SDS011;10197;54.282;10.078;2022-10-31T14:41:02;9.07;;;5.43;;
20073;SDS011;10197;54.282;10.078;2022-10-31T14:43:41;9.80;;;5.50;;